Riviere-a-Claude, Canada
Current Conditions -  °F | °C
As of 3:00 PM on Monday 26 Jan 2015 (Local Time) from CYZV Reporting Station
Few Clouds Few Clouds  
Wind Chill: -21°   Ceiling: Unl
Heat Index: -2°   Visibility: 30mi
Dew Point: -17°   Wind: 14mph
Humidity: 50%   Direction: 310°NW
Pressure: 30.17"   Gusts: NA
Location:  49.22°N, 65.89°W
Report Text: CYZV 262000Z 31012KT 30SM FEW030 FEW220 M19/M27 A3017 RMK CF1CI1 CF TR CI TR SLP223
Loading
Personal Weather Stations






























Interactive Weather Map New forecast layout! Learn more

10-Day Weather Forecast

Advertisements
Track Severe Weather on mobile